Latest Coastal Weather Observations for Wilsons Promontory

IDT60701

Issued at 3:52 am EDT Saturday 19 October 2019 (issued every 10 minutes, with the page automatically refreshed every 10 minutes)

About coastal observations | Map of coastal stations | Coastal observations for TAS | Marine services | Other Formats
Station Details ID: 085096 Name: WILSONS PROMONTORY LIGHTHOUSE Lat: -39.13 Lon: 146.42 Height: 95.0 m
Data from the previous 72 hours. | See also: Recent months at Wilsons Promontory
Date/Time
EDT
Wind Sea
Height
m
Swell Vis
km
Cloud Weather Temp
°C
Press
hPa
Rain since
9am
mm
Dir  Spd
kts
Gust
kts
Height
m
Period
s
Dir
19/03:31am W 18 28 - - - - - - - 9.3 1009.5 3.8
19/03:30am W 19 28 - - - - - - - 9.4 1009.4 3.8
19/03:00am W 20 30 - - - - - - - 10.0 1009.2 3.8
19/02:30am W 22 34 - - - - - - - 9.8 1009.1 3.8
19/02:00am W 25 38 - - - - - - - 9.9 1009.3 3.8
19/01:30am W 20 31 - - - - - - - 10.8 1009.2 3.6
19/01:00am W 23 33 - - - - - - - 10.9 1009.0 3.6
19/12:32am WSW 22 32 - - - - - - - 11.0 1009.4 3.6
19/12:30am WSW 23 32 - - - - - - - 11.0 1009.4 3.6
19/12:11am W 27 37 - - - - - - - 11.0 1008.9 3.6
19/12:00am W 26 35 - - - - - - - 11.0 1009.0 3.6
 
Date/Time
EDT
Wind Sea
Height
m
Swell Vis
km
Cloud Weather Temp
°C
Press
hPa
Rain since
9am
mm
Dir  Spd
kts
Gust
kts
Height
m
Period
s
Dir
18/11:30pm W 27 39 - - - - - - - 11.1 1008.9 3.6
18/11:00pm W 23 33 - - - - - - - 10.8 1009.4 3.6
18/10:30pm W 28 38 - - - - - - - 10.6 1009.4 3.6
18/10:00pm W 23 33 - - - - - - - 10.7 1009.5 3.0
18/09:30pm W 25 35 - - - - - - - 10.9 1009.5 2.4
18/09:00pm W 30 45 - - - - - - - 10.6 1009.0 2.0
18/08:56pm W 29 45 - - - - - - - 10.9 1008.6 2.0
18/08:31pm W 23 33 - - - - - - - 11.2 1008.7 0.6
18/08:30pm W 22 31 - - - - - - - 11.1 1008.7 0.6
18/08:00pm W 24 35 - - - - - - - 11.4 1008.7 0.4
18/07:30pm W 27 40 - - - - - - - 11.6 1007.9 0.4
18/07:00pm W 28 39 - - - - - - - 11.4 1007.9 0.4
18/06:56pm W 30 41 - - - - - - - 11.3 1007.7 0.2
18/06:40pm W 35 45 - - - - - - - 14.6 1005.6 0.0
18/06:30pm W 20 42 - - - - - - - 16.5 1006.0 0.0
18/06:13pm W 22 44 - - - - - - - 16.5 1005.7 0.0
18/06:00pm W 18 32 - - - - - - - 16.3 1006.0 0.0
18/05:30pm W 17 39 - - - - - - - 15.9 1006.6 0.0
18/05:00pm W 22 49 - - - - - - - 15.5 1006.5 0.0
18/04:52pm W 22 49 - - - - - - - 15.7 1006.1 0.0
18/04:30pm W 19 33 - - - - - - - 15.7 1006.8 0.0
18/04:05pm W 25 49 - - - - - - - 15.4 1006.4 0.0
18/04:00pm W 23 36 - - - - - - - 15.5 1006.8 0.0
18/03:30pm W 23 37 - - - - - - - 15.2 1007.4 0.0
18/03:00pm W 25 45 - - - - - - - 15.5 1007.6 0.0
18/02:30pm W 27 45 - - - - - - - 15.3 1008.0 0.0
18/02:00pm W 27 48 - - - - - - - 15.0 1008.6 0.0
18/01:30pm W 24 45 - - - - - - - 14.4 1009.3 0.0
18/01:00pm W 20 43 - - - - - - - 14.0 1009.7 0.0
18/12:55pm W 27 43 - - - - - - - 13.8 1009.4 0.0
18/12:35pm WNW 15 33 - - - - - - - 13.7 1009.6 0.0
18/12:30pm NW 11 33 - - - - - - - 14.0 1010.4 0.0
18/12:00pm W 18 34 - - - - - - - 13.5 1010.6 0.0
18/11:30am W 19 37 - - - - - - - 13.2 1011.1 0.0
18/11:00am W 24 42 - - - - - - - 12.7 1011.1 0.0
18/10:56am WNW 24 42 - - - - - - - 12.6 1010.9 0.0
18/10:40am WNW 18 30 - - - - - - - 12.7 1011.5 0.0
18/10:39am WNW 22 30 - - - - - - - 12.5 1011.4 0.0
18/10:37am W 15 30 - - - - - - - 12.5 1011.5 0.0
18/10:30am WNW 13 31 - - - - - - - 12.6 1011.7 0.0
18/10:00am WNW 18 32 - - - - - - - 11.9 1011.8 0.0
18/09:30am W 20 35 - - - - - - - 11.9 1011.9 0.0
18/09:00am W 23 40 - - - - - - - 11.3 1011.9 14.6
18/08:30am W 21 33 - - - - - - - 11.3 1012.3 14.6
18/08:00am W 19 34 - - - - - - - 10.7 1012.2 14.6
18/07:30am W 24 37 - - - - - - - 10.7 1012.1 14.6
18/07:00am W 19 31 - - - - - - - 10.4 1012.2 14.6
18/06:30am W 23 39 - - - - - - - 10.6 1011.7 14.6
18/06:00am W 22 32 - - - - - - - 10.9 1011.8 14.6
18/05:33am W 25 35 - - - - - - - 11.1 1011.8 14.6
18/05:30am W 26 35 - - - - - - - 11.1 1011.5 14.6
18/05:00am W 25 36 - - - - - - - 11.1 1011.6 14.6
18/04:30am W 27 37 - - - - - - - 11.0 1011.6 14.6
18/04:00am W 27 40 - - - - - - - 11.3 1011.4 14.6
18/03:30am W 22 33 - - - - - - - 11.5 1011.8 14.6
18/03:00am W 21 34 - - - - - - - 10.9 1011.8 14.6
18/02:35am W 19 30 - - - - - - - 11.2 1011.8 14.6
18/02:30am W 19 26 - - - - - - - 11.1 1011.9 14.6
18/02:00am W 22 32 - - - - - - - 11.0 1012.2 14.6
18/01:33am W 22 32 - - - - - - - 11.3 1012.2 14.6
18/01:30am W 22 31 - - - - - - - 11.2 1012.2 14.6
18/01:01am W 22 33 - - - - - - - 11.4 1012.5 14.6
18/01:00am W 22 30 - - - - - - - 11.4 1012.6 14.6
18/12:30am W 26 33 - - - - - - - 11.5 1012.6 14.6
18/12:00am W 25 31 - - - - - - - 11.5 1012.7 14.6
 
Date/Time
EDT
Wind Sea
Height
m
Swell Vis
km
Cloud Weather Temp
°C
Press
hPa
Rain since
9am
mm
Dir  Spd
kts
Gust
kts
Height
m
Period
s
Dir
17/11:38pm W 19 29 - - - - - - - 11.4 1012.9 14.6
17/11:30pm W 21 29 - - - - - - - 11.4 1012.9 14.6
17/11:09pm W 20 30 - - - - - - - 11.6 1012.9 14.6
17/11:00pm W 22 31 - - - - - - - 11.6 1012.8 14.6
17/10:30pm W 26 33 - - - - - - - 11.5 1012.2 14.6
17/10:17pm W 22 32 - - - - - - - 11.4 1012.5 14.6
17/10:00pm W 23 31 - - - - - - - 11.4 1012.2 14.6
17/09:30pm W 27 33 - - - - - - - 11.4 1011.4 14.6
17/09:00pm W 22 32 - - - - - - - 11.4 1010.8 14.6
17/08:37pm W 22 32 - - - - - - - 11.2 1010.6 14.6
17/08:30pm W 22 31 - - - - - - - 11.1 1010.4 14.6
17/08:28pm W 21 31 - - - - - - - 11.1 1010.3 14.6
17/08:00pm W 23 32 - - - - - - - 10.9 1009.6 14.6
17/07:40pm W 24 34 - - - - - - - 11.0 1009.1 14.6
17/07:30pm W 25 33 - - - - - - - 11.0 1009.0 14.6
17/07:00pm W 22 35 - - - - - - - 11.4 1008.6 14.6
17/06:55pm WSW 25 35 - - - - - - - 11.4 1008.3 14.6
17/06:30pm W 24 33 - - - - - - - 11.5 1007.8 14.6
17/06:17pm W 23 33 - - - - - - - 11.5 1007.7 14.6
17/06:00pm W 23 32 - - - - - - - 11.5 1007.1 14.6
17/05:30pm W 25 33 - - - - - - - 11.3 1006.9 14.6
17/05:18pm W 25 35 - - - - - - - 11.3 1006.6 14.6
17/05:00pm W 28 37 - - - - - - - 11.3 1006.1 14.6
17/04:30pm W 27 37 - - - - - - - 11.2 1005.6 14.6
17/04:00pm W 26 38 - - - - - - - 10.3 1005.5 14.4
17/03:30pm W 25 36 - - - - - - - 10.9 1005.6 13.6
17/03:00pm W 25 36 - - - - - - - 11.1 1005.6 13.6
17/02:30pm W 25 38 - - - - - - - 10.4 1005.8 13.6
17/02:00pm W 25 37 - - - - - - - 10.8 1005.6 13.6
17/01:30pm W 29 40 - - - - - - - 11.0 1005.6 13.6
17/01:00pm W 26 37 - - - - - - - 10.3 1005.0 13.6
17/12:52pm W 26 40 - - - - - - - 10.2 1005.2 13.6
17/12:50pm W 31 40 - - - - - - - 10.3 1004.8 13.6
17/12:34pm W 19 35 - - - - - - - 9.6 1004.9 13.6
17/12:30pm W 19 27 - - - - - - - 9.5 1005.5 13.6
17/12:00pm W 17 30 - - - - - - - 9.3 1005.9 12.2
17/11:41am W 16 27 - - - - - - - 9.2 1005.7 12.2
17/11:30am W 15 24 - - - - - - - 8.7 1006.1 12.0
17/11:00am W 16 30 - - - - - - - 9.2 1005.7 8.2
17/10:38am W 15 27 - - - - - - - 9.1 1005.6 8.2
17/10:30am W 14 22 - - - - - - - 8.6 1005.8 7.8
17/10:00am W 17 29 - - - - - - - 9.0 1005.3 4.4
17/09:30am W 14 22 - - - - - - - 8.4 1005.7 2.6
17/09:00am N 9 15 - - - - - - - 8.6 1005.6 15.4
17/08:30am W 5 8 - - - - - - - 8.8 1005.5 9.4
17/08:00am W 8 10 - - - - - - - 8.6 1005.6 8.6
17/07:30am W 13 21 - - - - - - - 8.7 1005.0 7.6
17/07:00am W 18 25 - - - - - - - 8.4 1004.6 7.6
17/06:30am W 23 35 - - - - - - - 8.3 1004.2 7.6
17/06:00am W 30 43 - - - - - - - 6.9 1005.1 4.6
17/05:55am W 31 43 - - - - - - - 7.2 1004.7 2.8
17/05:51am WNW 16 40 - - - - - - - 9.3 1004.7 1.4
17/05:30am NE 6 8 - - - - - - - 10.6 1003.8 1.2
17/05:00am NE 3 4 - - - - - - - 10.6 1004.0 1.2
17/04:30am S 2 6 - - - - - - - 11.1 1004.4 1.2
17/04:00am N 4 7 - - - - - - - 11.4 1004.9 1.0
17/03:30am CALM 0 0 - - - - - - - 11.0 1005.6 0.8
17/03:00am CALM 0 0 - - - - - - - 10.9 1005.8 0.8
17/02:30am CALM 0 0 - - - - - - - 10.7 1006.3 0.8
17/02:00am CALM 0 3 - - - - - - - 10.6 1006.5 0.8
17/01:30am SW 3 5 - - - - - - - 10.8 1007.1 0.8
17/01:00am N 7 9 - - - - - - - 10.5 1007.4 0.8
17/12:30am NNE 8 10 - - - - - - - 10.2 1007.5 0.8
17/12:00am NNE 8 10 - - - - - - - 10.2 1007.7 0.8
 
Date/Time
EDT
Wind Sea
Height
m
Swell Vis
km
Cloud Weather Temp
°C
Press
hPa
Rain since
9am
mm
Dir  Spd
kts
Gust
kts
Height
m
Period
s
Dir
16/11:30pm NNE 8 10 - - - - - - - 10.3 1008.1 0.8
16/11:00pm N 7 9 - - - - - - - 10.3 1008.3 0.8
16/10:30pm NNE 8 10 - - - - - - - 10.6 1008.5 0.8
16/10:00pm NNE 6 8 - - - - - - - 10.7 1008.6 0.8
16/09:30pm NE 6 8 - - - - - - - 10.8 1008.6 0.8
16/09:00pm E 6 8 - - - - - - - 10.9 1008.7 0.8
16/08:30pm SE 6 9 - - - - - - - 11.0 1008.7 0.8
16/08:00pm SSE 11 15 - - - - - - - 10.9 1008.5 0.8
16/07:30pm S 16 20 - - - - - - - 11.0 1008.0 0.8
16/07:00pm SSE 15 20 - - - - - - - 10.9 1008.0 0.8
16/06:30pm SSE 20 24 - - - - - - - 10.6 1007.7 0.8
16/06:00pm SSE 25 31 - - - - - - - 11.0 1006.7 -
16/05:51pm S 29 32 - - - - - - - 11.2 1006.5 0.8
16/05:50pm SE 15 32 - - - - - - - 11.4 1006.5 0.8
16/05:30pm WSW 4 7 - - - - - - - 13.7 1006.8 0.8
16/05:00pm NE 9 11 - - - - - - - 13.5 1006.4 0.0
16/04:30pm NNE 10 13 - - - - - - - 14.3 1006.5 0.0
16/04:00pm NNE 11 13 - - - - - - - 14.0 1007.0 0.0
16/03:30pm NNE 11 14 - - - - - - - 14.8 1007.2 0.0
16/03:00pm NNE 10 13 - - - - - - - 14.2 1007.9 0.0
16/02:30pm NNE 10 14 - - - - - - - 13.2 1008.3 0.0
16/02:00pm N 10 16 - - - - - - - 13.2 1008.6 0.0
16/01:30pm NNE 13 18 - - - - - - - 12.5 1008.8 0.0
16/01:00pm NE 13 17 - - - - - - - 12.1 1008.9 0.0
16/12:30pm NE 13 16 - - - - - - - 12.0 1009.0 0.0
16/12:00pm NE 14 17 - - - - - - - 11.8 1009.6 0.0
16/11:30am NE 13 17 - - - - - - - 12.0 1010.1 0.0
16/11:00am NE 14 17 - - - - - - - 11.9 1010.0 0.0
16/10:30am NE 12 15 - - - - - - - 11.9 1010.2 0.0
16/10:00am NE 10 13 - - - - - - - 11.8 1010.3 0.0
16/09:30am NNE 8 9 - - - - - - - 11.8 1011.0 0.0
16/09:00am NNE 5 6 - - - - - - - 11.5 1011.6 0.0
16/08:30am ENE 1 4 - - - - - - - 11.4 1011.5 0.0
16/08:00am NNE 4 5 - - - - - - - 11.3 1012.0 0.0
16/07:30am NNE 6 8 - - - - - - - 11.2 1011.8 0.0
16/07:00am NE 4 5 - - - - - - - 11.0 1011.9 0.0
16/06:30am NE 3 5 - - - - - - - 10.8 1011.7 0.0
16/06:00am CALM 0 4 - - - - - - - 10.9 1011.5 0.0
16/05:30am ESE 4 6 - - - - - - - 11.0 1011.2 0.0
16/05:00am SW 7 9 - - - - - - - 11.2 1011.8 0.0
16/04:30am WSW 7 10 - - - - - - - 11.3 1012.2 0.0
16/04:00am SW 7 8 - - - - - - - 11.2 1012.0 0.0

Other formats

Comma delimited format used in spreadsheet applications
http://www.bom.gov.au/fwo/IDT60701/IDT60701.94893.axf

JavaScript Object Notation format (JSON) in row-major order
http://www.bom.gov.au/fwo/IDT60701/IDT60701.94893.json

Data quality

Most of these data are generated automatically and are frequently updated. Quality checks on data are not normally performed. It is possible for incorrect values to appear. Refer to information at About Latest Weather Observations and please check the disclaimer before using these data.